createdAt,value
2022-08-17T00:00:33.252Z,99168.00
2022-08-17T00:03:05.942Z,99209.53
2022-08-17T00:05:37.278Z,99198.94
2022-08-17T00:08:05.358Z,99166.41
2022-08-17T00:10:33.363Z,99194.44
2022-08-17T00:13:01.282Z,99176.28
2022-08-17T00:15:30.573Z,99192.88
2022-08-17T00:17:58.388Z,99182.97
2022-08-17T00:20:30.502Z,99191.03
2022-08-17T00:23:10.021Z,99194.56
2022-08-17T00:25:38.145Z,99172.03
2022-08-17T00:28:06.184Z,99182.00
2022-08-17T00:30:51.353Z,99182.97
2022-08-17T00:33:23.775Z,99183.84
2022-08-17T00:35:51.903Z,99189.31
2022-08-17T00:38:21.324Z,99177.88
2022-08-17T00:40:50.599Z,99174.47
2022-08-17T00:43:22.270Z,99173.25
2022-08-17T00:45:50.242Z,99167.75
2022-08-17T00:48:26.153Z,99169.09
2022-08-17T00:51:01.678Z,99129.66
2022-08-17T00:53:31.993Z,99146.44
2022-08-17T00:56:00.790Z,99170.31
2022-08-17T00:58:35.784Z,99164.25
2022-08-17T01:01:04.921Z,99149.72
2022-08-17T01:03:32.869Z,99159.34
2022-08-17T01:06:01.467Z,99159.47
2022-08-17T01:08:31.517Z,99166.06
2022-08-17T01:11:02.244Z,99165.81
2022-08-17T01:13:34.504Z,99167.97
2022-08-17T01:16:09.137Z,99166.72
2022-08-17T01:18:37.181Z,99174.50
2022-08-17T01:21:06.257Z,99165.38
2022-08-17T01:23:35.760Z,99170.47
2022-08-17T01:26:05.502Z,99165.66
2022-08-17T01:28:53.767Z,99172.47
2022-08-17T01:31:22.519Z,99173.91
2022-08-17T01:33:50.366Z,99176.81
2022-08-17T01:36:18.379Z,99182.53
2022-08-17T01:38:47.580Z,99175.66
2022-08-17T01:41:16.499Z,99174.03
2022-08-17T01:43:46.695Z,99174.28
2022-08-17T01:46:15.952Z,99175.34
2022-08-17T01:48:47.399Z,99171.66
2022-08-17T01:51:15.957Z,99134.13
2022-08-17T01:53:45.511Z,99180.66
2022-08-17T01:56:15.803Z,99175.78
2022-08-17T01:58:44.024Z,99178.56
2022-08-17T02:01:12.481Z,99180.50
2022-08-17T02:03:53.126Z,99134.28
2022-08-17T02:06:27.068Z,99174.38
2022-08-17T02:09:03.093Z,99174.19
2022-08-17T02:11:33.296Z,99176.84
2022-08-17T02:14:05.491Z,99164.16
2022-08-17T02:16:37.764Z,99182.41
2022-08-17T02:19:06.761Z,99145.50
2022-08-17T02:21:34.699Z,99167.03
2022-08-17T02:24:02.739Z,99170.47
2022-08-17T02:26:32.039Z,99165.34
2022-08-17T02:29:00.114Z,99144.81
2022-08-17T02:31:28.029Z,99165.38
2022-08-17T02:34:04.033Z,99166.47
2022-08-17T02:36:33.679Z,99080.91
2022-08-17T02:39:02.203Z,99175.16
2022-08-17T02:41:30.487Z,99173.63
2022-08-17T02:43:59.889Z,99170.31
2022-08-17T02:46:28.344Z,99158.25
2022-08-17T02:48:56.380Z,99177.59
2022-08-17T02:51:24.360Z,99175.78
2022-08-17T02:53:52.350Z,99173.13
2022-08-17T02:56:40.233Z,99169.38
2022-08-17T02:59:09.673Z,99171.28
2022-08-17T03:01:37.663Z,99159.03
2022-08-17T03:04:05.933Z,99163.41
2022-08-17T03:06:33.820Z,99163.28
2022-08-17T03:09:09.706Z,99152.19
2022-08-17T03:11:37.609Z,99159.03
2022-08-17T03:14:05.620Z,99159.97
2022-08-17T03:16:34.859Z,99158.25
2022-08-17T03:19:05.360Z,99164.56
2022-08-17T03:21:33.219Z,99163.72
2022-08-17T03:24:01.199Z,99166.50
2022-08-17T03:26:36.755Z,99151.38
2022-08-17T03:29:04.697Z,99157.75
2022-08-17T03:31:33.948Z,99154.44
2022-08-17T03:34:05.127Z,99160.97
2022-08-17T03:36:36.105Z,99139.50
2022-08-17T03:39:04.406Z,99155.09
2022-08-17T03:41:32.234Z,99155.31
2022-08-17T03:44:00.210Z,99155.66
2022-08-17T03:46:45.564Z,99167.81
2022-08-17T03:49:32.499Z,99159.16
2022-08-17T03:52:18.329Z,99155.66
2022-08-17T03:55:04.171Z,99151.38
2022-08-17T03:57:32.502Z,99147.31
2022-08-17T04:00:00.840Z,99161.41
2022-08-17T04:02:30.408Z,99138.91
2022-08-17T04:05:07.632Z,99108.22
2022-08-17T04:07:35.480Z,99155.13
2022-08-17T04:10:04.161Z,99157.69
2022-08-17T04:12:43.740Z,99153.72
2022-08-17T04:15:12.566Z,99163.13
2022-08-17T04:17:40.630Z,99154.59
2022-08-17T04:20:11.266Z,99172.00
2022-08-17T04:22:39.413Z,99174.44
2022-08-17T04:25:09.267Z,99173.56
2022-08-17T04:27:37.552Z,99167.31
2022-08-17T04:30:06.908Z,99188.34
2022-08-17T04:33:05.406Z,99185.53
2022-08-17T04:35:26.382Z,99196.88
2022-08-17T04:37:54.322Z,99191.28
2022-08-17T04:40:40.451Z,99191.19
2022-08-17T04:43:08.997Z,99191.94
2022-08-17T04:48:05.358Z,99181.66
2022-08-17T04:50:34.722Z,99185.84
2022-08-17T04:53:02.858Z,99189.88
2022-08-17T04:55:31.342Z,99193.13
2022-08-17T04:57:59.427Z,99190.97
2022-08-17T05:00:27.404Z,99191.50
2022-08-17T05:02:56.180Z,99193.84
2022-08-17T05:05:25.723Z,99197.00
2022-08-17T05:07:55.455Z,99194.97
2022-08-17T05:10:23.516Z,99191.97
2022-08-17T05:12:58.557Z,99197.84
2022-08-17T05:15:26.560Z,99197.38
2022-08-17T05:17:54.614Z,99205.78
2022-08-17T05:20:22.442Z,99199.28
2022-08-17T05:22:51.376Z,99204.28
2022-08-17T05:25:25.736Z,99195.19
2022-08-17T05:27:54.255Z,99194.72
2022-08-17T05:30:22.579Z,99196.00
2022-08-17T05:32:54.660Z,99186.16
2022-08-17T05:35:22.941Z,99187.56
2022-08-17T05:37:50.900Z,99168.09
2022-08-17T05:40:19.925Z,99192.34
2022-08-17T05:42:49.154Z,99181.28
2022-08-17T05:45:23.618Z,99178.41
2022-08-17T05:48:07.282Z,99175.03
2022-08-17T05:50:42.900Z,99154.06
2022-08-17T05:53:12.377Z,99177.63
2022-08-17T05:55:42.885Z,99155.44
2022-08-17T05:58:16.990Z,99178.97
2022-08-17T06:00:48.334Z,99175.44
2022-08-17T06:03:39.887Z,99182.38
2022-08-17T06:06:15.429Z,99155.94
2022-08-17T06:08:51.646Z,99176.75
2022-08-17T06:11:23.660Z,99165.66
2022-08-17T06:14:06.795Z,99171.13
2022-08-17T06:16:36.876Z,99109.88
2022-08-17T06:19:07.310Z,99133.53
2022-08-17T06:21:36.643Z,99139.44
2022-08-17T06:24:08.981Z,99162.53
2022-08-17T06:26:42.976Z,99157.38
2022-08-17T06:29:27.027Z,99120.72
2022-08-17T06:31:54.910Z,99159.41
2022-08-17T06:34:22.931Z,99149.72
2022-08-17T06:36:54.075Z,99154.44
2022-08-17T06:39:37.136Z,99164.72
2022-08-17T06:42:55.077Z,99173.53
2022-08-17T06:45:03.651Z,99161.69
2022-08-17T06:47:36.108Z,99169.31
2022-08-17T06:50:09.159Z,99188.47
2022-08-17T06:52:45.550Z,99182.41
2022-08-17T06:55:18.803Z,99178.31
2022-08-17T06:57:48.768Z,99199.09
2022-08-17T07:00:20.079Z,99198.03
2022-08-17T07:02:52.610Z,99205.31
2022-08-17T07:05:26.460Z,99223.63
2022-08-17T07:08:09.471Z,99227.31
2022-08-17T07:10:40.620Z,99214.72
2022-08-17T07:13:29.421Z,99228.78
2022-08-17T07:16:04.728Z,99238.84
2022-08-17T07:18:33.202Z,99233.16
2022-08-17T07:21:07.471Z,99244.13
2022-08-17T07:23:52.339Z,99240.69
2022-08-17T07:26:23.270Z,99248.59
2022-08-17T07:28:51.708Z,99245.50
2022-08-17T07:31:20.974Z,99248.63
2022-08-17T07:34:00.635Z,99239.72
2022-08-17T07:36:33.719Z,99252.41
2022-08-17T07:39:02.076Z,99217.41
2022-08-17T07:41:53.462Z,99241.41
2022-08-17T07:44:18.212Z,99248.22
2022-08-17T07:47:08.777Z,99249.84
2022-08-17T07:49:37.915Z,99249.19
2022-08-17T07:52:48.422Z,99257.53
2022-08-17T07:54:57.167Z,99252.75
2022-08-17T07:57:32.016Z,99259.78
2022-08-17T08:00:16.974Z,99248.38
2022-08-17T08:02:48.110Z,99220.97
2022-08-17T08:05:29.886Z,99268.72
2022-08-17T08:08:28.483Z,99253.97
2022-08-17T08:11:02.484Z,99261.84
2022-08-17T08:13:32.229Z,99266.63
2022-08-17T08:16:24.922Z,99254.34
2022-08-17T08:18:57.357Z,99265.03
2022-08-17T08:21:37.402Z,99249.91
2022-08-17T08:24:36.734Z,99257.97
2022-08-17T08:27:12.994Z,99247.72
2022-08-17T08:29:45.045Z,99264.53
2022-08-17T08:32:18.276Z,99279.47
2022-08-17T08:35:01.525Z,99286.91
2022-08-17T08:37:42.143Z,99290.75
2022-08-17T08:40:19.914Z,99303.78
2022-08-17T08:42:51.079Z,99298.97
2022-08-17T08:45:21.560Z,99292.59
2022-08-17T08:48:05.983Z,99264.13
2022-08-17T08:50:55.659Z,99289.09
2022-08-17T08:53:29.899Z,99266.47
2022-08-17T08:56:01.417Z,99235.72
2022-08-17T08:58:41.985Z,99277.16
2022-08-17T09:01:16.702Z,99285.06
2022-08-17T09:04:19.666Z,99282.88
2022-08-17T09:06:51.599Z,99283.47
2022-08-17T09:09:29.719Z,99257.03
2022-08-17T09:12:04.094Z,99273.81
2022-08-17T09:14:46.477Z,99276.66
2022-08-17T09:17:18.335Z,99254.72
2022-08-17T09:19:49.101Z,99265.94
2022-08-17T09:22:25.767Z,99264.53
2022-08-17T09:24:57.250Z,99245.13
2022-08-17T09:27:28.317Z,99278.72
2022-08-17T09:29:58.819Z,99265.00
2022-08-17T09:32:29.895Z,99263.69
2022-08-17T09:35:01.463Z,99257.72
2022-08-17T09:37:31.889Z,99232.50
2022-08-17T09:40:07.889Z,99227.69
2022-08-17T09:42:40.809Z,99252.75
2022-08-17T09:45:16.746Z,99279.09
2022-08-17T09:47:48.463Z,99262.81
2022-08-17T09:51:03.633Z,99283.50
2022-08-17T09:53:10.991Z,99285.47
2022-08-17T09:55:53.542Z,99284.50
2022-08-17T09:58:28.992Z,99300.53
2022-08-17T10:01:04.481Z,99295.13
2022-08-17T10:03:46.032Z,99295.41
2022-08-17T10:06:14.860Z,99312.41
2022-08-17T10:08:47.115Z,99308.41
2022-08-17T10:11:20.298Z,99304.94
2022-08-17T10:13:52.982Z,99306.91
2022-08-17T10:16:24.822Z,99311.69
2022-08-17T10:19:02.062Z,99299.19
2022-08-17T10:21:47.278Z,99298.59
2022-08-17T10:24:36.826Z,99299.41
2022-08-17T10:27:05.901Z,99311.88
2022-08-17T10:29:49.254Z,99310.16
2022-08-17T10:32:26.266Z,99311.88
2022-08-17T10:35:18.672Z,99299.88
2022-08-17T10:38:04.784Z,99291.22
2022-08-17T10:40:37.321Z,99299.91
2022-08-17T10:43:22.876Z,99283.91
2022-08-17T10:46:09.253Z,99207.28
2022-08-17T10:48:43.360Z,99134.53
2022-08-17T10:51:12.818Z,98926.38
2022-08-17T10:53:58.152Z,99314.28
2022-08-17T10:56:44.736Z,99378.31
2022-08-17T10:59:29.390Z,99244.84
2022-08-17T11:02:15.281Z,99029.97
2022-08-17T11:04:50.758Z,99222.31
2022-08-17T11:56:56.978Z,99243.41
2022-08-17T12:03:40.384Z,98962.31
2022-08-17T12:19:57.612Z,99311.69
2022-08-17T12:22:27.131Z,99307.28
2022-08-17T12:24:57.572Z,99301.56
2022-08-17T12:27:47.725Z,99309.84
2022-08-17T12:30:16.587Z,99304.63
2022-08-17T12:32:47.637Z,99313.75
2022-08-17T12:35:22.787Z,99292.09
2022-08-17T12:37:50.759Z,99299.88
2022-08-17T12:40:20.094Z,99242.41
2022-08-17T12:42:55.461Z,99298.34
2022-08-17T12:45:41.412Z,99289.53
2022-08-17T12:48:12.524Z,99284.63
2022-08-17T12:50:44.917Z,99290.56
2022-08-17T12:53:13.473Z,99259.19
2022-08-17T12:55:51.762Z,99216.34
2022-08-17T12:58:25.352Z,99258.84
2022-08-17T13:00:58.409Z,99289.53
2022-08-17T13:03:36.367Z,99263.91
2022-08-17T13:06:10.352Z,99255.25
2022-08-17T13:08:40.305Z,99235.44
2022-08-17T13:11:10.400Z,99303.09
2022-08-17T13:13:40.856Z,99291.41
2022-08-17T13:16:16.053Z,99299.19
2022-08-17T13:18:45.668Z,99247.00
2022-08-17T13:24:17.043Z,99299.03
2022-08-17T13:26:46.804Z,99281.72
2022-08-17T13:29:24.080Z,99290.88
2022-08-17T13:31:56.561Z,99261.38
2022-08-17T13:34:48.978Z,99290.72
2022-08-17T13:37:29.651Z,99283.22
2022-08-17T13:40:00.235Z,99293.72
2022-08-17T13:42:33.008Z,99294.75
2022-08-17T13:45:01.239Z,99287.31
2022-08-17T13:47:49.255Z,99296.13
2022-08-17T13:50:21.501Z,99298.84
2022-08-17T13:52:52.199Z,99293.75
2022-08-17T13:55:22.605Z,99289.34
2022-08-17T13:58:03.536Z,99250.88
2022-08-17T14:00:36.331Z,99291.38
2022-08-17T14:03:05.117Z,99284.63
2022-08-17T14:05:33.919Z,99280.53
2022-08-17T14:08:07.520Z,99279.53
2022-08-17T14:10:36.432Z,99285.97
2022-08-17T14:13:04.659Z,99285.63
2022-08-17T14:15:54.583Z,99295.28
2022-08-17T14:18:50.549Z,99289.53
2022-08-17T14:21:10.543Z,99288.84
2022-08-17T14:23:39.954Z,99279.81
2022-08-17T14:26:11.750Z,99262.19
2022-08-17T14:28:47.776Z,99275.25
2022-08-17T14:31:22.676Z,99285.28
2022-08-17T14:33:51.437Z,99283.91
2022-08-17T14:36:19.282Z,99285.97
2022-08-17T14:38:48.623Z,99281.91
2022-08-17T14:41:21.962Z,99291.25
2022-08-17T14:43:51.395Z,99284.78
2022-08-17T14:46:19.342Z,99282.22
2022-08-17T14:48:47.289Z,99284.72
2022-08-17T14:51:16.131Z,99275.22
2022-08-17T14:53:45.430Z,99276.22
2022-08-17T14:56:14.745Z,99271.13
2022-08-17T14:58:43.211Z,99277.56
2022-08-17T15:01:11.333Z,99238.50
2022-08-17T15:03:40.012Z,99279.44
2022-08-17T15:06:09.252Z,99272.34
2022-08-17T15:08:37.478Z,99269.97
2022-08-17T15:11:05.737Z,99235.06
2022-08-17T15:13:53.097Z,99259.47
2022-08-17T15:16:21.546Z,99265.75
2022-08-17T15:18:50.159Z,99261.53
2022-08-17T15:21:18.519Z,99261.84
2022-08-17T15:23:46.811Z,99239.31
2022-08-17T15:26:14.667Z,99250.00
2022-08-17T15:28:44.262Z,99251.34
2022-08-17T15:31:29.887Z,99252.00
2022-08-17T15:34:00.384Z,99253.69
2022-08-17T15:36:28.257Z,99261.81
2022-08-17T15:38:56.104Z,99224.13
2022-08-17T15:41:23.979Z,99258.50
2022-08-17T15:43:53.265Z,99255.09
2022-08-17T15:46:21.996Z,99224.59
2022-08-17T15:48:50.934Z,99217.69
2022-08-17T15:51:23.372Z,99200.91
2022-08-17T15:53:51.977Z,99241.94
2022-08-17T15:56:20.049Z,99243.06
2022-08-17T15:58:48.269Z,99197.69
2022-08-17T16:02:11.971Z,99249.25
2022-08-17T16:04:26.407Z,99250.69
2022-08-17T16:06:55.491Z,99262.00
2022-08-17T16:09:23.344Z,99257.78
2022-08-17T16:11:53.662Z,99266.91
2022-08-17T16:14:24.155Z,99269.06
2022-08-17T16:16:53.877Z,99268.38
2022-08-17T16:19:21.850Z,99259.88
2022-08-17T16:21:49.733Z,99275.72
2022-08-17T16:24:17.652Z,99270.47
2022-08-17T16:26:45.539Z,99279.97
2022-08-17T16:29:13.439Z,99283.28
2022-08-17T16:31:41.976Z,99272.88
2022-08-17T16:34:17.333Z,99277.38
2022-08-17T16:36:53.731Z,99279.28
2022-08-17T16:39:23.806Z,99285.91
2022-08-17T16:41:51.681Z,99281.09
2022-08-17T16:44:21.220Z,99270.31
2022-08-17T16:49:38.078Z,99301.59
2022-08-17T16:52:09.904Z,99277.41
2022-08-17T16:54:38.969Z,99279.31
2022-08-17T16:57:07.026Z,99302.56
2022-08-17T16:59:40.831Z,99296.38
2022-08-17T17:02:13.669Z,99292.13
2022-08-17T17:04:46.875Z,99288.63
2022-08-17T17:07:33.881Z,99282.28
2022-08-17T17:10:04.800Z,99246.72
2022-08-17T17:13:01.170Z,99295.53
2022-08-17T17:15:22.243Z,99238.28
2022-08-17T17:17:50.595Z,99286.88
2022-08-17T17:20:22.764Z,99296.53
2022-08-17T17:23:03.185Z,99272.47
2022-08-17T17:25:34.026Z,99308.75
2022-08-17T17:28:05.210Z,99313.59
2022-08-17T17:30:37.572Z,99295.31
2022-08-17T17:33:07.480Z,99294.31
2022-08-17T17:35:43.681Z,99300.69
2022-08-17T17:38:17.044Z,99314.59
2022-08-17T17:40:46.640Z,99323.53
2022-08-17T17:43:37.741Z,99314.13
2022-08-17T17:46:27.009Z,99265.63
2022-08-17T17:48:56.708Z,99336.50
2022-08-17T17:51:58.017Z,99324.59
2022-08-17T17:54:26.314Z,99335.50
2022-08-17T17:56:55.735Z,99351.50
2022-08-17T17:59:26.660Z,99309.59
2022-08-17T18:01:56.581Z,99354.69
2022-08-17T18:04:27.594Z,99334.63
2022-08-17T18:07:03.823Z,99345.09
2022-08-17T18:09:44.133Z,99337.56
2022-08-17T18:12:23.995Z,99339.41
2022-08-17T18:15:00.328Z,99341.91
2022-08-17T18:17:29.558Z,99340.75
2022-08-17T18:19:57.754Z,99344.09
2022-08-17T18:22:27.785Z,99345.63
2022-08-17T18:24:57.324Z,99314.47
2022-08-17T18:27:29.679Z,99342.09
2022-08-17T18:29:57.942Z,99321.19
2022-08-17T18:32:31.259Z,99349.66
2022-08-17T18:35:01.332Z,99354.69
2022-08-17T18:37:44.880Z,99349.72
2022-08-17T18:40:29.486Z,99353.06
2022-08-17T18:43:03.303Z,99365.56
2022-08-17T18:45:38.222Z,99321.22
2022-08-17T18:48:06.949Z,99363.28
2022-08-17T18:50:41.349Z,99373.53
2022-08-17T18:53:34.207Z,99350.78
2022-08-17T18:56:24.589Z,99379.91
2022-08-17T18:58:55.201Z,99388.72
2022-08-17T19:01:23.210Z,99380.09
2022-08-17T19:04:16.011Z,99416.69
2022-08-17T19:06:43.879Z,99403.75
2022-08-17T19:09:32.802Z,99404.97
2022-08-17T19:12:01.955Z,99410.31
2022-08-17T19:14:29.885Z,99417.00
2022-08-17T19:17:00.475Z,99424.81
2022-08-17T19:19:31.821Z,99428.81
2022-08-17T19:22:03.833Z,99424.94
2022-08-17T19:24:33.182Z,99427.25
2022-08-17T19:27:06.312Z,99416.09
2022-08-17T19:29:38.348Z,99434.16
2022-08-17T19:32:07.718Z,99424.75
2022-08-17T19:34:36.261Z,99425.13
2022-08-17T19:37:10.912Z,99421.16
2022-08-17T19:39:42.322Z,99410.78
2022-08-17T19:42:13.276Z,99412.63
2022-08-17T19:44:47.183Z,99402.44
2022-08-17T19:47:30.738Z,99413.19
2022-08-17T19:50:11.767Z,99415.38
2022-08-17T19:52:47.823Z,99409.22
2022-08-17T19:55:21.367Z,99415.56
2022-08-17T19:57:55.899Z,99413.47
2022-08-17T20:00:23.778Z,99427.31
2022-08-17T20:02:55.751Z,99422.66
2022-08-17T20:05:28.227Z,99395.22
2022-08-17T20:07:57.998Z,99425.47
2022-08-17T20:10:32.634Z,99423.47
2022-08-17T20:13:04.556Z,99420.06
2022-08-17T20:15:34.392Z,99407.38
2022-08-17T20:18:03.385Z,99401.81
2022-08-17T20:20:34.692Z,99428.22
2022-08-17T20:23:06.361Z,99429.44
2022-08-17T20:25:42.021Z,99432.34
2022-08-17T20:28:21.573Z,99422.38
2022-08-17T20:30:50.758Z,99416.94
2022-08-17T20:33:26.594Z,99389.22
2022-08-17T20:36:07.017Z,99430.41
2022-08-17T20:38:43.139Z,99442.63
2022-08-17T20:41:14.997Z,99435.03
2022-08-17T20:43:53.305Z,99386.69
2022-08-17T20:46:35.000Z,99447.19
2022-08-17T20:49:15.679Z,99440.28
2022-08-17T20:52:00.709Z,99453.84
2022-08-17T20:54:42.661Z,99455.13
2022-08-17T20:57:38.648Z,99458.84
2022-08-17T21:00:14.609Z,99453.00
2022-08-17T21:02:44.365Z,99452.56
2022-08-17T21:05:30.402Z,99450.00
2022-08-17T21:07:59.914Z,99437.56
2022-08-17T21:10:36.558Z,99446.88
2022-08-17T21:13:38.909Z,99449.66
2022-08-17T21:16:11.877Z,99454.34
2022-08-17T21:18:41.894Z,99451.69
2022-08-17T21:21:17.762Z,99420.13
2022-08-17T21:24:07.405Z,99443.78
2022-08-17T21:26:50.747Z,99441.31
2022-08-17T21:29:32.315Z,99437.78
2022-08-17T21:32:19.066Z,99448.47
2022-08-17T21:35:25.564Z,99446.66
2022-08-17T21:37:55.115Z,99446.97
2022-08-17T21:40:26.101Z,99445.56
2022-08-17T21:42:56.105Z,99448.06
2022-08-17T21:45:27.234Z,99456.16
2022-08-17T21:48:09.241Z,99449.75
2022-08-17T21:50:37.473Z,99463.53
2022-08-17T21:53:05.694Z,99462.78
2022-08-17T21:55:34.273Z,99466.78
2022-08-17T21:58:13.529Z,99475.97
2022-08-17T22:00:44.129Z,99476.16
2022-08-17T22:03:23.626Z,99438.41
2022-08-17T22:05:51.697Z,99466.88
2022-08-17T22:08:21.794Z,99467.06
2022-08-17T22:10:51.497Z,99468.97
2022-08-17T22:13:21.577Z,99450.34
2022-08-17T22:15:52.294Z,99483.50
2022-08-17T22:18:22.451Z,99480.84
2022-08-17T22:20:53.177Z,99477.28
2022-08-17T22:23:43.933Z,99479.53
2022-08-17T22:26:13.379Z,99452.97
2022-08-17T22:28:46.629Z,99441.41
2022-08-17T22:31:16.657Z,99467.78
2022-08-17T22:33:46.794Z,99427.09
2022-08-17T22:36:24.464Z,99465.19
2022-08-17T22:38:53.112Z,99472.09
2022-08-17T22:41:41.152Z,99436.31
2022-08-17T22:44:25.737Z,99490.22
2022-08-17T22:47:01.195Z,99468.53
2022-08-17T22:49:31.411Z,99485.03
2022-08-17T22:52:03.820Z,99491.53
2022-08-17T22:54:49.263Z,99492.75
2022-08-17T22:57:34.552Z,99478.06
2022-08-17T23:00:02.492Z,99488.00
2022-08-17T23:02:32.651Z,99484.66
2022-08-17T23:05:21.594Z,99485.50
2022-08-17T23:07:52.861Z,99496.59
2022-08-17T23:10:21.139Z,99487.81
2022-08-17T23:12:49.111Z,99492.38
2022-08-17T23:15:18.705Z,99478.28
2022-08-17T23:17:48.050Z,99493.34
2022-08-17T23:20:16.674Z,99492.38
2022-08-17T23:22:51.204Z,99470.47
2022-08-17T23:25:25.001Z,99489.91
2022-08-17T23:27:53.235Z,99482.13
2022-08-17T23:30:23.211Z,99478.50
2022-08-17T23:32:53.633Z,99477.63
2022-08-17T23:35:40.278Z,99476.84
2022-08-17T23:38:12.633Z,99487.44
2022-08-17T23:40:40.704Z,99492.78
2022-08-17T23:43:17.365Z,99485.75
2022-08-17T23:45:53.255Z,99391.59
2022-08-17T23:48:28.555Z,99495.72
2022-08-17T23:51:05.874Z,99505.72
2022-08-17T23:53:36.253Z,99499.72
2022-08-17T23:56:10.189Z,99506.09
2022-08-17T23:58:39.233Z,99513.34
